Shakespeare, Alabama
Current Conditions -  °F | °C
As of 8:58 PM on Monday 20 Oct 2014 (Local Time) from KMXF Reporting Station
Clear Clear  
Wind Chill: 57°   Ceiling: Unl
Heat Index: 57°   Visibility: 10mi
Dew Point: 54°   Wind: 0mph
Humidity: 91%   Direction: NA
Pressure: 30.01"   Gusts: NA
Location:  32.3665°N, 86.2999°W
Report Text: KMXF 210158Z AUTO 00000KT 10SM CLR 14/12 A3001 RMK AO2 SLP165 T01370123
Loading
Personal Weather Stations






























Interactive Weather Map
Tropical Storm Tracking
New forecast layout! Learn more

10-Day Weather Forecast

Advertisements
Track Severe Weather on mobile